Pointe Noire, Canada
Current Conditions -  °F | °C
As of 1:00 AM on Sunday 26 Oct 2014 (Local Time) from CYZV Reporting Station
Light Snow Light Snow  
Wind Chill: 23°   Ceiling: 800
Heat Index: 32°   Visibility: 3mi
Dew Point: 32°   Wind: 12mph
Humidity: 100%   Direction: 70°ENE
Pressure: 29.57"   Gusts: NA
Location:  50.15°N, 66.43°W
Report Text: CYZV 260500Z 07010KT 3SM -SN VV008 00/M00 A2957 RMK SN8 SLP017
Loading
Personal Weather Stations






























Interactive Weather Map
Tropical Storm Tracking
New forecast layout! Learn more

10-Day Weather Forecast

Advertisements
Track Severe Weather on mobile